GMMB

Ben Slimane Airport

Ben Slimane, Morocco
METAR GMMB 221000Z VRB03KT 4000 BR BKN013 19/14 Q1015 BECMG 5000
Observed Flight Rules
May-22 @ 10:00 UTC (19 minutes ago) Instrument Flight Rules
Wind Visibility Clouds Conditions
Variable at 3 knots 4,007 meters
  • Broken at 1,300' AGL
  • Mist
Temperatures Readings
Current 19°C / 66°F
Dewpoint 14°C / 57°F
Humidity 73%
Altimeter 29.97" Hg
Pressure 1015 hPa
Elevation 191
METAR GMMB 221000Z VRB03KT 4000 BR BKN013 19/14 Q1015 BECMG 5000
Observed Flight Rules
May-22 @ 10:00 UTC
(19 minutes ago)
IFR
Wind Visibility
Variable at 3 knots 4,007 meters
Clouds
  • Broken at 1,300' AGL
Conditions
  • Mist
Temperature Dewpoint
19°C / 66°F 14°C / 57°F
Humidity Altimeter Pressure
73% 29.97" Hg 1015 hPa